Time;durP1;ratioP1;P1;durP2;ratioP2;P2;SDS_P1;SDS_P2;PMS_P1;PMS_P2;Temp;Humidity;BMP_temperature;BMP_pressure;BME280_temperature;BME280_humidity;BME280_pressure;Samples;Min_cycle;Max_cycle;Signal;HPM_P1;HPM_P2
2021/06/21 00:00:19;;;;;;;7.70;2.22;;;;;;;19.27;77.53;98922.59;2202713;40;20062;-80
2021/06/21 00:01:51;;;;;;;9.02;2.08;;;;;;;19.25;77.46;98918.47;2208065;40;20034;-80
2021/06/21 00:03:22;;;;;;;11.52;2.20;;;;;;;19.19;77.82;98917.50;2203457;40;20049;-80
2021/06/21 00:04:54;;;;;;;9.40;1.88;;;;;;;19.18;77.98;98923.97;2202634;40;20043;-80
2021/06/21 00:06:27;;;;;;;11.45;2.17;;;;;;;19.21;77.63;98919.97;2202749;40;20047;-79
2021/06/21 00:07:59;;;;;;;12.00;2.25;;;;;;;19.22;77.21;98922.47;2206578;40;20042;-79
2021/06/21 00:09:30;;;;;;;5.80;1.70;;;;;;;19.25;77.15;98919.28;2206009;40;20046;-79
2021/06/21 00:11:02;;;;;;;11.27;2.13;;;;;;;19.25;76.92;98921.97;2202374;40;20034;-80
2021/06/21 00:12:34;;;;;;;9.35;2.08;;;;;;;19.22;76.66;98935.16;2202960;40;20037;-80
2021/06/21 00:14:07;;;;;;;8.38;2.10;;;;;;;19.16;77.12;98928.75;2202853;40;20035;-79
2021/06/21 00:15:38;;;;;;;11.30;2.10;;;;;;;19.12;76.87;98935.72;2203091;40;20073;-79
2021/06/21 00:17:11;;;;;;;13.48;2.47;;;;;;;19.07;77.39;98930.97;2202633;40;20315;-79
2021/06/21 00:18:43;;;;;;;8.23;1.88;;;;;;;19.09;77.11;98931.56;2203450;40;20035;-80
2021/06/21 00:20:16;;;;;;;9.82;1.77;;;;;;;19.12;76.61;98936.53;2201632;40;20031;-79
2021/06/21 00:21:49;;;;;;;10.07;2.03;;;;;;;19.15;76.77;98930.66;2200858;40;20245;-79
2021/06/21 00:23:21;;;;;;;12.88;2.03;;;;;;;19.16;76.74;98931.47;2202375;40;20042;-80
2021/06/21 00:24:52;;;;;;;5.80;1.58;;;;;;;19.16;76.51;98926.91;2202227;40;20046;-79
2021/06/21 00:26:24;;;;;;;7.93;1.73;;;;;;;19.17;76.46;98922.31;2201914;40;20038;-79
2021/06/21 00:27:55;;;;;;;12.35;2.42;;;;;;;19.15;76.52;98925.25;2202750;40;20039;-79
2021/06/21 00:29:27;;;;;;;7.45;1.73;;;;;;;19.17;76.61;98928.56;2202000;40;20050;-79
2021/06/21 00:30:58;;;;;;;7.38;1.48;;;;;;;19.18;76.46;98924.78;2201517;40;20038;-80
2021/06/21 00:32:30;;;;;;;7.05;1.85;;;;;;;19.18;76.36;98929.38;2201670;40;20062;-79
2021/06/21 00:34:02;;;;;;;7.60;1.75;;;;;;;19.12;76.62;98936.53;2202435;40;20046;-79
2021/06/21 00:35:34;;;;;;;6.72;1.60;;;;;;;19.12;76.77;98931.09;2202073;40;20043;-79
2021/06/21 00:37:07;;;;;;;9.35;2.10;;;;;;;19.14;76.59;98936.28;2201920;40;20035;-79
2021/06/21 00:38:39;;;;;;;12.70;2.15;;;;;;;19.10;76.65;98930.50;2202182;40;20042;-79
2021/06/21 00:40:12;;;;;;;8.40;1.90;;;;;;;19.08;77.08;98945.34;2202328;40;20041;-79
2021/06/21 00:41:43;;;;;;;13.15;2.47;;;;;;;19.09;77.07;98936.16;2202574;40;20094;-79
2021/06/21 00:43:15;;;;;;;10.07;2.13;;;;;;;19.14;76.94;98941.69;2202726;40;20026;-78
2021/06/21 00:44:46;;;;;;;9.77;1.92;;;;;;;19.17;77.17;98942.09;2202200;40;20035;-79
2021/06/21 00:46:20;;;;;;;9.63;2.05;;;;;;;19.18;77.21;98935.59;2201476;40;20050;-79
2021/06/21 00:47:54;;;;;;;8.52;2.00;;;;;;;19.21;77.18;98938.91;2202276;40;20038;-79
2021/06/21 00:49:24;;;;;;;7.85;2.25;;;;;;;19.21;77.30;98937.06;2202115;40;20041;-79
2021/06/21 00:50:56;;;;;;;12.23;1.90;;;;;;;19.26;76.98;98928.25;2209005;40;20062;-79
2021/06/21 00:52:29;;;;;;;6.95;2.28;;;;;;;19.23;76.93;98929.50;2202196;40;20058;-78
2021/06/21 00:54:02;;;;;;;5.57;1.35;;;;;;;19.26;77.17;98934.47;2205633;40;20026;-79
2021/06/21 00:55:33;;;;;;;11.52;2.08;;;;;;;19.35;76.93;98931.44;2202044;40;20043;-79
2021/06/21 00:57:05;;;;;;;11.65;2.40;;;;;;;19.29;77.10;98925.91;2203208;40;20061;-79
2021/06/21 00:58:40;;;;;;;10.02;2.05;;;;;;;19.20;77.19;98921.84;2202383;40;20058;-79
2021/06/21 01:00:15;;;;;;;9.07;2.22;;;;;;;19.20;77.41;98927.28;2203248;40;20030;-79
2021/06/21 01:01:48;;;;;;;9.38;2.30;;;;;;;19.22;77.68;98936.00;2201639;40;20047;-80
2021/06/21 01:03:20;;;;;;;9.13;2.40;;;;;;;19.14;77.64;98928.16;2197112;40;20039;-81
2021/06/21 01:04:51;;;;;;;8.48;2.05;;;;;;;19.07;78.10;98938.25;2200944;40;20026;-79
2021/06/21 01:06:23;;;;;;;9.73;2.42;;;;;;;19.06;77.81;98925.78;2203217;40;20023;-79
2021/06/21 01:07:55;;;;;;;7.20;1.88;;;;;;;19.07;77.95;98922.84;2203140;40;20051;-78
2021/06/21 01:09:27;;;;;;;10.38;2.53;;;;;;;19.01;78.24;98938.13;2203303;40;20046;-81
2021/06/21 01:10:59;;;;;;;10.73;2.35;;;;;;;19.01;78.50;98945.41;2203152;40;20054;-80
2021/06/21 01:12:52;;;;;;;8.52;2.00;;;;;;;18.98;78.56;98935.88;2203345;40;20023;-78
2021/06/21 01:14:31;;;;;;;8.35;1.90;;;;;;;19.02;78.50;98931.66;2204897;40;20059;-81
2021/06/21 01:16:11;;;;;;;7.60;1.80;;;;;;;19.06;78.25;98932.03;2202552;40;20023;-80
2021/06/21 01:17:51;;;;;;;12.38;2.63;;;;;;;19.09;78.05;98936.97;2201089;40;20031;-78
2021/06/21 01:19:42;;;;;;;11.07;2.22;;;;;;;19.10;78.23;98938.63;2202485;40;20332;-78
2021/06/21 01:22:03;;;;;;;12.25;2.38;;;;;;;19.11;78.03;98939.47;2201618;40;20027;-80
2021/06/21 01:24:13;;;;;;;8.95;1.67;;;;;;;19.14;77.69;98947.97;2197968;40;20047;-80
2021/06/21 01:25:54;;;;;;;10.48;2.85;;;;;;;19.16;77.95;98953.16;2199643;40;20042;-81
2021/06/21 01:27:40;;;;;;;13.23;2.30;;;;;;;19.11;78.06;98937.56;2201333;40;20031;-79
2021/06/21 01:29:31;;;;;;;8.80;2.40;;;;;;;19.14;77.89;98947.13;2197666;40;20028;-79
2021/06/21 01:31:08;;;;;;;15.20;2.92;;;;;;;19.16;78.04;98945.88;2202340;40;20387;-80
2021/06/21 01:32:45;;;;;;;7.93;2.25;;;;;;;19.18;77.83;98938.31;2202714;40;20051;-79
2021/06/21 01:34:18;;;;;;;9.80;2.40;;;;;;;19.17;77.67;98933.97;2202184;40;20035;-80
2021/06/21 01:35:57;;;;;;;18.05;2.00;;;;;;;19.21;77.47;98939.75;2202273;40;20087;-79
2021/06/21 01:37:29;;;;;;;6.78;1.45;;;;;;;19.25;77.57;98937.41;2202637;40;20019;-81
2021/06/21 01:39:02;;;;;;;8.77;2.58;;;;;;;19.28;77.04;98934.22;2202782;40;20034;-81
2021/06/21 01:40:42;;;;;;;8.57;2.10;;;;;;;19.30;77.17;98927.56;2202789;40;20106;-81
2021/06/21 01:42:15;;;;;;;9.02;2.45;;;;;;;19.31;77.05;98928.38;2202441;40;20064;-81
2021/06/21 01:43:50;;;;;;;5.68;1.65;;;;;;;19.35;76.90;98932.28;2205325;40;20073;-81
2021/06/21 01:45:23;;;;;;;9.45;2.20;;;;;;;19.33;77.11;98932.50;2195225;40;20362;-80
2021/06/21 01:46:58;;;;;;;8.25;2.33;;;;;;;19.32;77.05;98927.31;2197443;40;20377;-82
2021/06/21 01:48:33;;;;;;;9.27;2.13;;;;;;;19.28;77.50;98934.22;2196022;40;20039;-81
2021/06/21 01:50:09;;;;;;;9.90;2.42;;;;;;;19.22;77.00;98940.56;2200976;40;20035;-82
2021/06/21 01:51:41;;;;;;;13.30;2.22;;;;;;;19.14;77.00;98934.41;2202604;40;20039;-81
2021/06/21 01:53:15;;;;;;;12.25;2.20;;;;;;;19.15;77.22;98943.38;2202196;40;20047;-80
2021/06/21 01:54:53;;;;;;;8.05;1.60;;;;;;;19.11;77.02;98937.56;2196813;40;20226;-81
2021/06/21 01:56:29;;;;;;;10.88;1.90;;;;;;;19.12;77.01;98930.28;2198467;40;20038;-81
2021/06/21 01:58:02;;;;;;;7.85;2.08;;;;;;;19.14;77.00;98934.41;2196959;40;20054;-80
2021/06/21 01:59:34;;;;;;;7.28;2.00;;;;;;;19.16;76.81;98923.34;2200406;40;20066;-80
2021/06/21 02:01:14;;;;;;;6.72;1.67;;;;;;;19.20;77.06;98923.72;2200933;40;20027;-81
2021/06/21 02:02:48;;;;;;;5.90;1.60;;;;;;;19.24;76.44;98916.81;2201861;40;20074;-79
2021/06/21 02:04:23;;;;;;;5.60;1.50;;;;;;;19.28;76.33;98915.28;2194745;40;20035;-79
2021/06/21 02:05:55;;;;;;;7.07;1.67;;;;;;;19.33;76.26;98926.25;2196787;40;20031;-80
2021/06/21 02:07:27;;;;;;;10.90;2.17;;;;;;;19.36;76.01;98933.94;2202167;40;20041;-80
2021/06/21 02:09:00;;;;;;;9.27;1.80;;;;;;;19.38;75.86;98937.22;2203000;40;20045;-80
2021/06/21 02:10:34;;;;;;;10.32;1.98;;;;;;;19.40;75.84;98935.13;2200821;40;20027;-82
2021/06/21 02:12:06;;;;;;;11.18;2.00;;;;;;;19.42;75.51;98934.88;2202077;40;20046;-81
2021/06/21 02:13:40;;;;;;;6.13;1.83;;;;;;;19.44;75.56;98933.63;2201549;40;20031;-80
2021/06/21 02:15:12;;;;;;;7.82;1.90;;;;;;;19.44;75.64;98928.19;2202159;40;20115;-81
2021/06/21 02:16:45;;;;;;;7.90;1.77;;;;;;;19.44;75.50;98930.06;2201802;40;20046;-80
2021/06/21 02:18:20;;;;;;;11.52;2.17;;;;;;;19.44;75.73;98932.78;2202006;40;20109;-80
2021/06/21 02:19:54;;;;;;;10.23;2.00;;;;;;;19.41;75.61;98934.06;2198682;40;20094;-80
2021/06/21 02:21:26;;;;;;;7.32;1.73;;;;;;;19.41;75.43;98930.53;2201234;40;20038;-80
2021/06/21 02:22:59;;;;;;;8.95;2.00;;;;;;;19.41;75.58;98931.34;2199282;40;20065;-80
2021/06/21 02:24:30;;;;;;;9.05;2.20;;;;;;;19.40;75.66;98932.41;2198629;40;20039;-81
2021/06/21 02:26:02;;;;;;;10.82;1.95;;;;;;;19.38;75.28;98945.34;2201456;40;20034;-81
2021/06/21 02:27:36;;;;;;;8.05;1.98;;;;;;;19.33;75.49;98950.66;2202207;40;20039;-81
2021/06/21 02:29:09;;;;;;;9.75;2.22;;;;;;;19.31;75.50;98955.47;2201853;40;20062;-80
2021/06/21 02:30:42;;;;;;;7.25;2.00;;;;;;;19.32;75.62;98952.50;2202032;40;20035;-80
2021/06/21 02:32:14;;;;;;;12.65;1.90;;;;;;;19.36;75.59;98952.06;2201575;40;20030;-80
2021/06/21 02:33:46;;;;;;;8.50;1.58;;;;;;;19.32;75.31;98951.69;2202587;40;20102;-80
2021/06/21 02:35:19;;;;;;;11.70;1.92;;;;;;;19.27;75.69;98944.25;2203302;40;20051;-80
2021/06/21 02:36:53;;;;;;;6.85;1.60;;;;;;;19.25;75.81;98953.69;2201868;40;20046;-82
2021/06/21 02:38:24;;;;;;;6.70;1.80;;;;;;;19.27;75.86;98960.50;2203123;40;20039;-80
2021/06/21 02:39:56;;;;;;;8.05;2.22;;;;;;;19.28;75.95;98961.31;2203469;40;20038;-80
2021/06/21 02:41:28;;;;;;;7.53;2.30;;;;;;;19.27;75.71;98944.25;2203482;40;20022;-82
2021/06/21 02:43:00;;;;;;;7.25;1.73;;;;;;;19.28;75.53;98947.78;2204769;40;20039;-81
2021/06/21 02:44:33;;;;;;;10.18;2.28;;;;;;;19.30;75.46;98954.66;2203495;40;20162;-81
2021/06/21 02:46:04;;;;;;;10.02;2.38;;;;;;;19.30;75.97;98953.81;2203606;40;20038;-81
2021/06/21 02:47:38;;;;;;;8.43;1.83;;;;;;;19.31;75.86;98955.47;2203376;40;20039;-80
2021/06/21 02:49:08;;;;;;;7.70;1.50;;;;;;;19.28;75.65;98954.03;2203739;40;20102;-82
2021/06/21 02:50:45;;;;;;;7.20;2.13;;;;;;;19.27;76.01;98957.81;2202958;40;20172;-81
2021/06/21 02:52:26;;;;;;;9.00;2.08;;;;;;;19.24;76.00;98960.16;2197443;40;20046;-81
2021/06/21 02:54:02;;;;;;;9.43;2.70;;;;;;;19.23;75.97;98964.72;2199153;40;20054;-81
2021/06/21 02:55:45;;;;;;;8.38;2.20;;;;;;;19.26;75.61;98958.03;2200781;40;20039;-81
2021/06/21 02:57:29;;;;;;;16.27;1.48;;;;;;;19.25;75.58;98954.50;2202556;40;20027;-81
2021/06/21 02:59:06;;;;;;;8.07;1.90;;;;;;;19.26;75.64;98958.84;2201452;40;20038;-82
2021/06/21 03:00:40;;;;;;;9.23;2.17;;;;;;;19.29;75.85;98957.56;2202040;40;20039;-81
2021/06/21 03:02:16;;;;;;;10.95;2.22;;;;;;;19.29;75.47;98952.16;2196321;40;20061;-82
2021/06/21 03:03:51;;;;;;;9.65;1.90;;;;;;;19.29;75.32;98962.97;2196251;40;20059;-81
2021/06/21 03:05:24;;;;;;;8.93;2.03;;;;;;;19.26;75.45;98958.03;2199840;40;20031;-81
2021/06/21 03:06:59;;;;;;;7.80;1.83;;;;;;;19.25;75.44;98959.09;2201991;40;20443;-81
2021/06/21 03:08:31;;;;;;;11.13;2.05;;;;;;;19.26;75.42;98955.34;2200569;40;20126;-80
2021/06/21 03:10:04;;;;;;;4.82;1.50;;;;;;;19.26;75.42;98956.16;2201428;40;20047;-80
2021/06/21 03:11:37;;;;;;;8.40;2.42;;;;;;;19.26;75.26;98956.16;2201499;40;20035;-85
2021/06/21 03:13:09;;;;;;;6.45;2.15;;;;;;;19.23;75.45;98953.88;2200804;40;20031;-80
2021/06/21 03:14:46;;;;;;;8.45;2.30;;;;;;;19.19;75.43;98955.41;2200419;40;20023;-80
2021/06/21 03:16:19;;;;;;;5.80;1.70;;;;;;;19.15;75.54;98957.75;2200576;40;20031;-82
2021/06/21 03:17:53;;;;;;;8.80;1.60;;;;;;;19.14;75.50;98958.81;2200231;40;20042;-84
2021/06/21 03:19:26;;;;;;;8.02;1.85;;;;;;;19.16;75.68;98945.88;2202466;40;20398;-84
2021/06/21 03:21:00;;;;;;;9.50;1.90;;;;;;;19.19;75.47;98941.88;2200080;40;20039;-82
2021/06/21 03:22:34;;;;;;;12.98;3.42;;;;;;;19.22;75.65;98932.44;2200347;40;20031;-83
2021/06/21 03:24:07;;;;;;;11.77;2.90;;;;;;;19.20;75.40;98937.25;2199831;40;20335;-82
2021/06/21 03:25:39;;;;;;;7.55;1.65;;;;;;;19.20;75.40;98938.09;2200738;40;20043;-82
2021/06/21 03:27:10;;;;;;;7.70;2.13;;;;;;;19.21;75.57;98941.63;2199526;40;20031;-82
2021/06/21 03:28:41;;;;;;;6.28;1.90;;;;;;;19.22;75.11;98946.84;2199544;40;20039;-83
2021/06/21 03:30:14;;;;;;;11.77;1.70;;;;;;;19.25;75.30;98951.78;2199712;40;20076;-82
2021/06/21 03:31:48;;;;;;;8.35;2.20;;;;;;;19.25;75.44;98956.38;2199664;40;20403;-82
2021/06/21 03:33:20;;;;;;;8.38;1.55;;;;;;;19.29;75.41;98957.56;2200457;40;20038;-81
2021/06/21 03:34:53;;;;;;;8.35;2.22;;;;;;;19.27;75.33;98965.13;2199906;40;20043;-83
2021/06/21 03:36:24;;;;;;;10.52;2.05;;;;;;;19.26;75.16;98963.47;2204112;40;20042;-82
2021/06/21 03:38:09;;;;;;;8.52;1.70;;;;;;;19.25;75.24;98953.69;2199536;40;20026;-81
2021/06/21 03:39:40;;;;;;;8.95;1.67;;;;;;;19.17;75.42;98952.94;2198831;40;20269;-83
2021/06/21 03:41:11;;;;;;;9.35;1.70;;;;;;;19.17;75.47;98950.22;2199699;40;20035;-78
2021/06/21 03:42:42;;;;;;;8.35;2.05;;;;;;;19.17;75.27;98955.66;2202092;40;20034;-79
2021/06/21 03:44:14;;;;;;;12.70;1.83;;;;;;;19.18;75.51;98951.03;2202357;40;20027;-80
2021/06/21 03:45:45;;;;;;;6.85;2.05;;;;;;;19.21;75.35;98956.00;2199330;40;20054;-81
2021/06/21 03:47:18;;;;;;;11.30;1.95;;;;;;;19.22;75.40;98941.41;2194149;40;20039;-81
2021/06/21 03:48:49;;;;;;;8.20;1.90;;;;;;;19.28;74.96;98934.22;2200017;40;20037;-81
2021/06/21 03:50:20;;;;;;;7.35;2.10;;;;;;;19.27;75.18;98927.19;2199270;40;20077;-82
2021/06/21 03:51:52;;;;;;;7.65;1.58;;;;;;;19.26;74.69;98931.75;2196630;40;20115;-82
2021/06/21 04:16:22;;;;;;;7.40;1.98;;;;;;;19.14;75.34;98998.59;2148986;41;20027;-86
2021/06/21 04:17:56;;;;;;;8.48;1.92;;;;;;;19.09;75.48;99001.97;2149263;41;20026;-88
2021/06/21 04:19:28;;;;;;;7.85;1.77;;;;;;;19.13;75.91;99000.47;2165435;41;20026;-82
2021/06/21 04:21:00;;;;;;;7.30;1.80;;;;;;;19.18;75.70;99003.31;2175051;40;20040;-86
2021/06/21 04:22:32;;;;;;;7.50;2.25;;;;;;;19.23;75.36;98991.81;2183347;40;20028;-86
2021/06/21 04:24:05;;;;;;;8.65;2.25;;;;;;;19.30;75.41;98991.72;2197120;40;20042;-88
2021/06/21 04:25:37;;;;;;;6.97;1.90;;;;;;;19.35;74.97;98994.59;2196819;40;20126;-85
2021/06/21 04:27:09;;;;;;;8.70;2.28;;;;;;;19.40;74.86;98992.03;2197039;40;20042;-86
2021/06/21 04:28:40;;;;;;;7.97;2.30;;;;;;;19.42;74.86;98989.91;2196953;40;20019;-86
2021/06/21 04:30:14;;;;;;;7.53;1.75;;;;;;;19.48;74.79;98993.59;2197635;40;20043;-87
2021/06/21 04:31:45;;;;;;;9.10;1.90;;;;;;;19.50;74.44;98991.50;2197987;40;20048;-85
2021/06/21 04:33:18;;;;;;;10.98;2.20;;;;;;;19.51;74.14;98992.31;2197721;40;20031;-88
2021/06/21 04:34:49;;;;;;;10.55;2.92;;;;;;;19.44;74.22;98993.22;2197022;40;20039;-85
2021/06/21 04:36:21;;;;;;;7.15;1.40;;;;;;;19.43;74.28;98974.47;2197123;40;20454;-83
2021/06/21 04:37:54;;;;;;;8.93;2.08;;;;;;;19.45;74.20;98977.78;2196120;40;20035;-82
2021/06/21 04:39:26;;;;;;;7.88;1.90;;;;;;;19.52;73.96;98980.41;2198167;40;20034;-86
2021/06/21 04:40:56;;;;;;;8.25;1.65;;;;;;;19.56;73.77;98978.88;2202284;40;20027;-84
2021/06/21 04:42:28;;;;;;;7.13;2.05;;;;;;;19.62;73.37;98977.97;2202129;40;20148;-83
2021/06/21 04:44:00;;;;;;;9.18;1.63;;;;;;;19.65;73.34;98972.06;2194625;40;20034;-84
2021/06/21 04:45:32;;;;;;;5.47;1.75;;;;;;;19.71;73.39;98973.03;2196335;40;20512;-85
2021/06/21 04:47:04;;;;;;;8.98;2.10;;;;;;;19.73;72.97;98974.50;2197781;40;20047;-84
2021/06/21 04:48:38;;;;;;;5.95;2.03;;;;;;;19.75;72.62;98972.34;2197636;40;20019;-86
2021/06/21 04:50:13;;;;;;;6.18;1.70;;;;;;;19.78;72.57;98973.78;2196858;40;20078;-86
2021/06/21 04:51:46;;;;;;;6.35;1.70;;;;;;;19.80;72.27;98979.78;2195943;40;20055;-83
2021/06/21 04:53:17;;;;;;;7.53;1.67;;;;;;;19.82;72.37;98993.13;2197570;40;20035;-88
2021/06/21 04:54:49;;;;;;;12.07;2.08;;;;;;;19.82;72.36;98998.56;2198216;40;20457;-87
2021/06/21 04:56:21;;;;;;;6.00;1.60;;;;;;;19.82;72.20;98990.41;2196420;40;20039;-86
2021/06/21 04:57:53;;;;;;;9.65;1.63;;;;;;;19.84;72.10;98991.84;2197506;40;20035;-86
2021/06/21 04:59:25;;;;;;;7.65;2.05;;;;;;;19.84;71.94;98996.44;2197348;40;20039;-89
2021/06/21 05:00:57;;;;;;;7.85;1.30;;;;;;;19.86;72.26;99000.59;2197761;40;20047;-83
2021/06/21 05:02:29;;;;;;;4.93;1.52;;;;;;;19.88;71.99;98990.38;2197626;40;20028;-86
2021/06/21 05:04:04;;;;;;;7.90;1.63;;;;;;;19.91;71.95;98989.88;2197722;40;20038;-84
2021/06/21 05:05:37;;;;;;;7.35;1.90;;;;;;;19.89;71.99;98989.28;2197903;40;20036;-85
2021/06/21 05:07:09;;;;;;;7.45;1.85;;;;;;;19.93;71.68;98982.34;2197984;40;20023;-87
2021/06/21 05:08:41;;;;;;;9.98;2.13;;;;;;;19.97;71.57;98990.03;2200476;40;20031;-83
2021/06/21 05:10:15;;;;;;;10.07;2.28;;;;;;;19.98;71.86;98984.34;2202270;40;20043;-84
2021/06/21 05:11:47;;;;;;;8.95;1.60;;;;;;;20.02;71.43;98993.69;2195243;40;20023;-82
2021/06/21 05:13:19;;;;;;;8.98;1.95;;;;;;;20.03;71.45;98980.94;2194476;40;20058;-85
2021/06/21 05:14:50;;;;;;;9.90;1.90;;;;;;;20.10;71.56;98984.38;2196191;40;20046;-85
2021/06/21 05:16:22;;;;;;;10.52;2.28;;;;;;;20.15;71.82;98986.38;2199018;40;20031;-81
2021/06/21 05:17:55;;;;;;;11.85;2.53;;;;;;;20.19;71.59;98993.81;2203083;40;20031;-84
2021/06/21 05:19:27;;;;;;;8.65;1.75;;;;;;;20.25;71.42;98992.91;2197932;40;20522;-84
2021/06/21 05:20:59;;;;;;;7.88;2.10;;;;;;;20.24;71.15;98991.25;2195969;40;20042;-84
2021/06/21 05:22:30;;;;;;;12.48;1.98;;;;;;;20.29;70.75;98995.97;2196015;40;20048;-83
2021/06/21 05:24:02;;;;;;;10.68;2.10;;;;;;;20.33;70.92;98993.63;2196056;40;21615;-81
2021/06/21 05:25:34;;;;;;;10.07;2.22;;;;;;;20.31;71.06;98998.44;2199930;40;20055;-87
2021/06/21 05:27:06;;;;;;;8.90;1.63;;;;;;;20.37;70.91;99006.47;2201186;40;20038;-83
2021/06/21 05:28:37;;;;;;;7.88;1.73;;;;;;;20.41;70.72;99002.22;2198791;40;20023;-83
2021/06/21 05:30:10;;;;;;;9.85;2.17;;;;;;;20.45;70.95;98999.84;2198812;40;20134;-82
2021/06/21 05:31:41;;;;;;;9.27;1.63;;;;;;;20.43;70.59;98996.56;2196787;40;20031;-83
2021/06/21 05:33:14;;;;;;;8.43;2.22;;;;;;;20.37;70.06;99006.47;2200441;40;20035;-83
2021/06/21 05:34:46;;;;;;;8.07;2.10;;;;;;;20.38;69.76;99008.13;2201896;40;20042;-84
2021/06/21 05:36:18;;;;;;;8.85;2.33;;;;;;;20.35;69.55;99011.31;2202942;40;20031;-84
2021/06/21 05:37:50;;;;;;;7.38;1.95;;;;;;;20.32;69.50;99009.06;2199509;40;20035;-84
2021/06/21 05:39:21;;;;;;;6.97;2.05;;;;;;;20.34;69.51;99001.50;2202221;40;20047;-89
2021/06/21 05:40:52;;;;;;;7.88;2.38;;;;;;;20.40;69.47;98997.84;2202297;40;20042;-84
2021/06/21 05:42:23;;;;;;;7.82;1.90;;;;;;;20.45;69.61;99008.00;2207704;40;20065;-82
2021/06/21 05:43:55;;;;;;;9.45;1.95;;;;;;;20.46;69.33;99006.94;2207244;40;20038;-87
2021/06/21 05:45:26;;;;;;;9.85;2.35;;;;;;;20.49;69.27;99003.78;2207642;40;20033;-83
2021/06/21 05:46:57;;;;;;;8.32;2.75;;;;;;;20.48;68.89;99001.31;2208124;40;20034;-88
2021/06/21 05:48:29;;;;;;;7.97;2.78;;;;;;;20.52;68.64;99002.47;2209253;40;20115;-87
2021/06/21 05:50:03;;;;;;;9.90;2.10;;;;;;;20.62;68.27;99004.59;2208757;40;20026;-88
2021/06/21 05:51:35;;;;;;;9.98;2.35;;;;;;;20.71;67.97;98997.75;2209966;40;20037;-87
2021/06/21 05:53:07;;;;;;;9.40;2.05;;;;;;;20.78;67.49;98992.25;2209101;40;20038;-89
2021/06/21 05:54:38;;;;;;;10.75;2.60;;;;;;;20.82;67.33;98987.97;2207050;40;20033;-84
2021/06/21 05:56:10;;;;;;;12.20;2.20;;;;;;;20.86;67.09;98992.69;2206687;40;20046;-84
2021/06/21 05:57:42;;;;;;;8.88;2.17;;;;;;;20.88;66.84;98985.13;2197000;40;20035;-89
2021/06/21 05:59:13;;;;;;;8.80;2.25;;;;;;;20.94;66.78;98987.94;2196841;40;20041;-84
2021/06/21 06:00:45;;;;;;;10.77;1.63;;;;;;;20.91;66.71;98989.25;2197071;40;20035;-84
2021/06/21 06:02:17;;;;;;;8.40;2.20;;;;;;;20.94;66.53;98985.22;2202612;40;20035;-83
2021/06/21 06:03:48;;;;;;;9.10;1.73;;;;;;;20.94;66.34;98990.66;2202831;40;20354;-89
2021/06/21 06:05:22;;;;;;;9.18;1.88;;;;;;;20.97;66.06;98993.72;2202348;40;20035;-88
2021/06/21 06:06:53;;;;;;;8.88;1.83;;;;;;;21.01;65.85;98994.91;2202326;40;20030;-83
2021/06/21 06:08:25;;;;;;;6.80;1.77;;;;;;;21.09;65.88;99001.03;2202827;40;20039;-84
2021/06/21 06:09:57;;;;;;;8.82;2.25;;;;;;;21.08;65.42;99002.09;2200955;40;20039;-83
2021/06/21 06:11:29;;;;;;;10.70;2.03;;;;;;;21.10;65.19;99002.69;2201092;40;20187;-87
2021/06/21 06:13:01;;;;;;;7.88;2.17;;;;;;;21.15;65.03;99003.63;2201532;40;20047;-90
2021/06/21 06:14:32;;;;;;;9.35;2.03;;;;;;;21.16;64.85;99009.91;2200325;40;20120;-83
2021/06/21 06:16:05;;;;;;;8.75;2.85;;;;;;;21.15;64.76;99005.53;2199509;40;20063;-85
2021/06/21 06:17:37;;;;;;;12.23;3.08;;;;;;;21.12;65.17;99017.69;2200495;40;20035;-85
2021/06/21 06:19:08;;;;;;;12.40;3.08;;;;;;;21.13;64.94;99018.53;2202891;40;20035;-85
2021/06/21 06:20:42;;;;;;;12.55;2.25;;;;;;;21.14;65.24;99014.75;2201959;40;20126;-88
2021/06/21 06:22:13;;;;;;;16.20;2.58;;;;;;;21.16;64.93;99024.31;2199807;40;20043;-84
2021/06/21 06:23:45;;;;;;;7.00;1.92;;;;;;;21.18;64.98;99013.19;2201496;40;20516;-85
2021/06/21 06:25:17;;;;;;;7.60;1.88;;;;;;;21.27;64.62;99022.59;2201998;40;20062;-90
2021/06/21 06:26:49;;;;;;;7.93;2.05;;;;;;;21.30;64.15;99021.31;2196252;40;20031;-86
2021/06/21 06:28:20;;;;;;;5.88;1.67;;;;;;;21.35;63.75;99021.41;2197032;40;20046;-87
2021/06/21 06:29:52;;;;;;;9.10;1.55;;;;;;;21.38;63.81;99023.66;2195479;40;20724;-85
2021/06/21 06:31:24;;;;;;;5.88;1.77;;;;;;;21.36;63.70;99028.50;2196122;40;20035;-85
2021/06/21 06:32:56;;;;;;;10.77;2.40;;;;;;;21.40;63.94;99024.22;2196302;40;20047;-86
2021/06/21 06:34:27;;;;;;;9.77;1.92;;;;;;;21.40;63.63;99017.97;2196001;40;20378;-86
2021/06/21 06:36:01;;;;;;;10.43;2.13;;;;;;;21.40;63.90;99023.41;2194995;40;20047;-82
2021/06/21 06:37:33;;;;;;;5.88;1.65;;;;;;;21.39;63.80;99022.59;2194191;40;20032;-84
2021/06/21 06:39:06;;;;;;;7.10;1.70;;;;;;;21.44;63.58;99024.59;2196812;40;20039;-89
2021/06/21 06:40:38;;;;;;;9.68;2.05;;;;;;;21.51;63.13;99020.66;2200886;40;20039;-85
2021/06/21 06:42:10;;;;;;;8.23;1.95;;;;;;;21.65;62.97;99021.22;2196713;40;20024;-84
2021/06/21 06:43:42;;;;;;;6.30;1.58;;;;;;;21.74;62.57;99020.81;2195936;40;20027;-87
2021/06/21 06:45:15;;;;;;;7.25;1.85;;;;;;;21.85;62.66;99017.22;2196046;40;20113;-86
2021/06/21 06:46:46;;;;;;;8.38;1.98;;;;;;;21.94;62.22;99012.22;2194237;40;20039;-85
2021/06/21 06:48:18;;;;;;;9.70;1.83;;;;;;;22.05;62.51;99015.94;2195346;40;20096;-84
2021/06/21 06:49:50;;;;;;;8.70;2.03;;;;;;;22.17;62.21;99019.44;2195796;40;20390;-86
2021/06/21 06:51:23;;;;;;;6.90;1.60;;;;;;;22.29;61.89;99022.06;2195348;40;20058;-85
2021/06/21 06:52:55;;;;;;;9.40;2.00;;;;;;;22.38;61.94;99020.59;2195614;40;20039;-84
2021/06/21 06:54:29;;;;;;;9.38;2.22;;;;;;;22.50;61.48;99014.28;2195386;40;20121;-88
2021/06/21 06:57:49;;;;;;;8.30;2.05;;;;;;;22.72;60.84;99022.50;2194341;40;20027;-84
2021/06/21 06:59:21;;;;;;;6.65;1.60;;;;;;;22.73;60.37;99018.69;2195104;40;20042;-88
2021/06/21 07:00:52;;;;;;;6.55;1.65;;;;;;;22.82;59.91;99025.38;2195870;40;20046;-85
2021/06/21 07:02:24;;;;;;;9.65;1.70;;;;;;;22.90;59.74;99013.22;2194955;40;20038;-86
2021/06/21 07:03:57;;;;;;;11.27;2.15;;;;;;;23.01;59.05;99016.91;2194386;40;20027;-83
2021/06/21 07:05:29;;;;;;;6.57;1.88;;;;;;;23.01;58.53;99016.91;2194793;40;20039;-85
2021/06/21 07:07:03;;;;;;;6.95;1.92;;;;;;;23.11;58.28;99019.78;2195307;40;20404;-87
2021/06/21 07:08:35;;;;;;;8.85;1.40;;;;;;;23.20;57.87;99014.72;2193925;40;20038;-86
2021/06/21 07:10:06;;;;;;;8.02;1.98;;;;;;;23.20;57.85;99017.44;2193791;40;20039;-83
2021/06/21 07:11:41;;;;;;;6.88;1.83;;;;;;;23.20;57.24;99017.44;2194863;40;20035;-86
2021/06/21 07:13:13;;;;;;;9.40;1.65;;;;;;;23.29;56.65;99015.13;2195412;40;20038;-87
2021/06/21 07:14:45;;;;;;;10.80;1.80;;;;;;;23.45;55.63;99019.66;2195265;40;20047;-83
2021/06/21 07:16:17;;;;;;;7.20;1.85;;;;;;;23.46;55.61;99020.50;2195326;40;20032;-84
2021/06/21 07:17:49;;;;;;;13.77;2.20;;;;;;;23.52;55.86;99019.47;2196658;40;20023;-85
2021/06/21 07:19:21;;;;;;;6.88;2.00;;;;;;;23.66;55.69;99014.44;2194532;40;20035;-83
2021/06/21 07:20:53;;;;;;;9.07;1.88;;;;;;;23.72;55.18;99012.59;2196137;40;20126;-85
2021/06/21 07:22:26;;;;;;;8.35;1.90;;;;;;;23.67;54.97;99006.00;2196155;40;20047;-82
2021/06/21 07:23:58;;;;;;;6.80;1.75;;;;;;;23.72;54.98;98996.22;2196583;40;20047;-84
2021/06/21 07:25:30;;;;;;;6.47;2.00;;;;;;;23.86;54.67;99007.56;2200300;40;20054;-84
2021/06/21 07:27:03;;;;;;;10.85;1.83;;;;;;;23.91;54.52;99007.59;2201820;40;20307;-87
2021/06/21 07:28:36;;;;;;;11.32;1.80;;;;;;;23.80;54.72;99006.69;2205956;40;20220;-83
2021/06/21 07:30:09;;;;;;;6.30;1.45;;;;;;;23.81;54.61;99009.13;2206703;40;20045;-85
2021/06/21 07:31:41;;;;;;;9.68;1.52;;;;;;;23.90;54.61;99003.25;2201319;40;20042;-83
2021/06/21 07:33:12;;;;;;;10.85;2.28;;;;;;;23.93;54.43;99010.88;2205935;40;20030;-85
2021/06/21 07:34:44;;;;;;;11.23;1.60;;;;;;;24.10;54.10;99002.63;2208213;40;20069;-87
2021/06/21 07:36:16;;;;;;;6.78;1.50;;;;;;;24.22;53.61;99003.28;2207354;40;20046;-84
2021/06/21 07:37:49;;;;;;;7.63;1.73;;;;;;;24.35;53.45;99001.19;2203817;40;20045;-83
2021/06/21 07:39:20;;;;;;;9.90;1.70;;;;;;;24.50;53.26;99000.47;2207527;40;20039;-86
2021/06/21 07:40:52;;;;;;;7.38;1.83;;;;;;;24.38;52.75;98998.75;2206635;40;20373;-84
2021/06/21 07:42:24;;;;;;;8.63;2.15;;;;;;;24.36;52.48;99000.94;2212383;40;20034;-83